createdAt,value
2023-04-13T00:00:10.990Z,8.60
2023-04-13T00:02:39.278Z,8.47
2023-04-13T00:05:07.559Z,8.61
2023-04-13T00:07:34.092Z,8.56
2023-04-13T00:10:03.314Z,8.62
2023-04-13T00:12:29.626Z,8.87
2023-04-13T00:14:56.771Z,8.45
2023-04-13T00:17:24.984Z,8.02
2023-04-13T00:19:53.765Z,7.82
2023-04-13T00:22:20.383Z,7.57
2023-04-13T00:24:47.996Z,7.27
2023-04-13T00:27:14.322Z,7.13
2023-04-13T00:29:40.707Z,7.05
2023-04-13T00:32:07.469Z,7.23
2023-04-13T00:34:36.153Z,7.10
2023-04-13T00:37:03.481Z,7.15
2023-04-13T00:39:31.161Z,7.15
2023-04-13T00:42:01.292Z,7.23
2023-04-13T00:44:28.557Z,7.21
2023-04-13T00:46:54.978Z,7.21
2023-04-13T00:49:23.956Z,7.31
2023-04-13T00:51:50.909Z,7.35
2023-04-13T00:54:19.020Z,7.33
2023-04-13T00:56:45.561Z,7.27
2023-04-13T00:59:12.586Z,7.25
2023-04-13T01:01:46.854Z,7.30
2023-04-13T01:04:18.706Z,7.26
2023-04-13T01:06:50.117Z,7.17
2023-04-13T01:09:26.389Z,7.01
2023-04-13T01:11:52.755Z,7.12
2023-04-13T01:14:24.382Z,7.20
2023-04-13T01:17:04.008Z,7.04
2023-04-13T01:19:33.627Z,7.22
2023-04-13T01:22:02.442Z,7.20
2023-04-13T01:24:36.324Z,7.27
2023-04-13T01:27:32.751Z,7.26
2023-04-13T01:29:59.384Z,7.21
2023-04-13T01:32:33.385Z,7.26
2023-04-13T01:34:59.844Z,7.20
2023-04-13T01:37:26.397Z,7.20
2023-04-13T01:39:53.848Z,7.29
2023-04-13T01:42:20.177Z,7.34
2023-04-13T01:44:47.056Z,7.39
2023-04-13T01:47:16.358Z,7.18
2023-04-13T01:49:48.547Z,7.32
2023-04-13T01:52:16.117Z,7.34
2023-04-13T01:54:45.451Z,7.34
2023-04-13T01:57:13.541Z,7.22
2023-04-13T01:59:40.336Z,7.20
2023-04-13T02:02:06.922Z,7.01
2023-04-13T02:04:34.050Z,6.94
2023-04-13T02:07:00.452Z,7.01
2023-04-13T02:09:29.539Z,7.13
2023-04-13T02:11:56.079Z,7.13
2023-04-13T02:14:22.556Z,7.07
2023-04-13T02:16:49.047Z,7.03
2023-04-13T02:19:15.427Z,7.16
2023-04-13T02:21:42.129Z,7.05
2023-04-13T02:24:11.828Z,7.05
2023-04-13T02:26:38.220Z,7.13
2023-04-13T02:29:05.626Z,7.05
2023-04-13T02:31:32.298Z,7.11
2023-04-13T02:33:59.300Z,7.19
2023-04-13T02:36:25.803Z,7.15
2023-04-13T02:38:53.245Z,7.14
2023-04-13T02:41:22.947Z,7.13
2023-04-13T02:43:50.644Z,7.27
2023-04-13T02:46:18.266Z,7.18
2023-04-13T02:48:44.908Z,7.13
2023-04-13T02:51:12.302Z,7.23
2023-04-13T02:53:38.699Z,7.26
2023-04-13T02:56:06.346Z,7.25
2023-04-13T02:58:32.754Z,7.27
2023-04-13T03:00:59.201Z,7.17
2023-04-13T03:03:25.651Z,7.14
2023-04-13T03:05:52.321Z,7.08
2023-04-13T03:08:18.899Z,7.05
2023-04-13T03:10:45.284Z,6.92
2023-04-13T03:13:12.059Z,7.06
2023-04-13T03:15:38.453Z,6.90
2023-04-13T03:18:05.069Z,7.10
2023-04-13T03:20:31.529Z,7.17
2023-04-13T03:22:58.720Z,7.08
2023-04-13T03:25:25.086Z,7.00
2023-04-13T03:27:54.580Z,6.93
2023-04-13T03:30:21.643Z,6.92
2023-04-13T03:32:48.177Z,6.87
2023-04-13T03:35:14.568Z,6.88
2023-04-13T03:37:42.761Z,6.86
2023-04-13T03:40:12.853Z,6.83
2023-04-13T03:42:39.225Z,6.80
2023-04-13T03:45:06.702Z,6.76
2023-04-13T03:47:33.383Z,6.66
2023-04-13T03:49:59.827Z,6.74
2023-04-13T03:52:26.187Z,6.61
2023-04-13T03:54:52.559Z,6.73
2023-04-13T03:57:18.902Z,6.62
2023-04-13T03:59:45.225Z,6.65
2023-04-13T04:02:11.900Z,6.55
2023-04-13T04:04:38.493Z,6.60
2023-04-13T04:07:05.101Z,6.54
2023-04-13T04:09:31.716Z,6.48
2023-04-13T04:11:58.149Z,6.54
2023-04-13T04:14:25.239Z,6.51
2023-04-13T04:16:51.610Z,6.52
2023-04-13T04:19:17.963Z,6.49
2023-04-13T04:21:45.129Z,6.43
2023-04-13T04:24:12.575Z,6.48
2023-04-13T04:26:40.271Z,6.54
2023-04-13T04:29:08.900Z,6.55
2023-04-13T04:31:37.501Z,6.55
2023-04-13T04:34:04.494Z,6.52
2023-04-13T04:36:30.927Z,6.50
2023-04-13T04:39:02.414Z,6.47
2023-04-13T04:41:33.312Z,6.41
2023-04-13T04:44:02.857Z,6.41
2023-04-13T04:46:29.769Z,6.31
2023-04-13T04:49:00.664Z,6.27
2023-04-13T04:51:28.105Z,6.26
2023-04-13T04:53:54.765Z,6.30
2023-04-13T04:56:21.492Z,6.17
2023-04-13T04:58:47.983Z,6.11
2023-04-13T05:01:14.423Z,5.99
2023-04-13T05:03:41.135Z,5.96
2023-04-13T05:06:08.301Z,5.97
2023-04-13T05:08:34.795Z,5.92
2023-04-13T05:11:01.124Z,5.96
2023-04-13T05:13:27.428Z,5.94
2023-04-13T05:15:53.862Z,5.93
2023-04-13T05:18:20.269Z,6.00
2023-04-13T05:20:47.267Z,6.07
2023-04-13T05:23:13.667Z,6.14
2023-04-13T05:25:40.537Z,6.24
2023-04-13T05:28:06.896Z,6.23
2023-04-13T05:30:36.379Z,6.14
2023-04-13T05:33:05.778Z,6.08
2023-04-13T05:35:33.371Z,6.14
2023-04-13T05:38:00.791Z,6.09
2023-04-13T05:40:28.944Z,6.20
2023-04-13T05:42:56.351Z,6.19
2023-04-13T05:45:22.787Z,6.22
2023-04-13T05:47:49.230Z,6.26
2023-04-13T05:50:15.788Z,6.25
2023-04-13T05:52:42.500Z,6.29
2023-04-13T05:55:09.123Z,6.36
2023-04-13T05:57:35.742Z,6.41
2023-04-13T06:00:02.095Z,6.41
2023-04-13T06:02:32.252Z,6.36
2023-04-13T06:04:58.934Z,6.44
2023-04-13T06:07:26.107Z,6.49
2023-04-13T06:09:52.502Z,6.55
2023-04-13T06:12:19.076Z,6.62
2023-04-13T06:14:45.504Z,6.73
2023-04-13T06:17:12.959Z,6.80
2023-04-13T06:19:40.384Z,6.90
2023-04-13T06:22:07.001Z,6.78
2023-04-13T06:24:33.451Z,6.79
2023-04-13T06:26:59.924Z,6.86
2023-04-13T06:29:26.545Z,6.90
2023-04-13T06:31:52.875Z,6.87
2023-04-13T06:34:19.213Z,7.03
2023-04-13T06:36:45.569Z,7.00
2023-04-13T06:39:11.919Z,7.11
2023-04-13T06:41:39.375Z,7.05
2023-04-13T06:44:06.022Z,7.22
2023-04-13T06:46:32.532Z,7.12
2023-04-13T06:48:59.279Z,7.11
2023-04-13T06:51:28.029Z,7.17
2023-04-13T06:53:54.640Z,7.48
2023-04-13T06:56:21.235Z,7.34
2023-04-13T06:58:47.663Z,7.33
2023-04-13T07:01:16.407Z,7.75
2023-04-13T07:03:43.779Z,7.64
2023-04-13T07:06:10.795Z,7.51
2023-04-13T07:08:37.323Z,7.80
2023-04-13T07:11:03.689Z,7.86
2023-04-13T07:13:30.114Z,7.62
2023-04-13T07:15:56.483Z,7.72
2023-04-13T07:18:22.968Z,7.78
2023-04-13T07:20:50.879Z,7.52
2023-04-13T07:23:17.678Z,7.91
2023-04-13T07:25:44.595Z,8.22
2023-04-13T07:28:11.071Z,8.23
2023-04-13T07:30:42.954Z,8.27
2023-04-13T07:33:09.412Z,8.12
2023-04-13T07:35:38.943Z,8.12
2023-04-13T07:38:06.192Z,8.22
2023-04-13T07:40:32.565Z,8.30
2023-04-13T07:42:58.952Z,8.51
2023-04-13T07:45:25.619Z,8.26
2023-04-13T07:47:54.398Z,8.55
2023-04-13T07:50:20.805Z,8.61
2023-04-13T07:52:48.218Z,8.76
2023-04-13T07:55:14.835Z,8.96
2023-04-13T07:57:41.342Z,8.72
2023-04-13T08:00:08.361Z,9.24
2023-04-13T08:02:42.971Z,9.26
2023-04-13T08:05:10.161Z,9.40
2023-04-13T08:07:36.853Z,9.29
2023-04-13T08:10:04.141Z,9.18
2023-04-13T08:12:31.904Z,9.01
2023-04-13T08:14:58.432Z,9.00
2023-04-13T08:17:24.804Z,9.25
2023-04-13T08:19:52.486Z,9.22
2023-04-13T08:22:19.094Z,9.63
2023-04-13T08:24:45.888Z,10.04
2023-04-13T08:27:12.495Z,10.58
2023-04-13T08:29:39.010Z,10.83
2023-04-13T08:32:05.849Z,10.43
2023-04-13T08:34:32.221Z,9.61
2023-04-13T08:36:59.177Z,10.18
2023-04-13T08:39:26.076Z,10.01
2023-04-13T08:41:52.602Z,9.86
2023-04-13T08:44:20.191Z,10.21
2023-04-13T08:46:46.714Z,10.56
2023-04-13T08:49:14.305Z,10.42
2023-04-13T08:51:43.558Z,10.88
2023-04-13T08:54:12.027Z,11.35
2023-04-13T08:56:46.253Z,11.91
2023-04-13T08:59:15.217Z,11.95
2023-04-13T09:01:43.937Z,12.41
2023-04-13T09:04:11.329Z,12.32
2023-04-13T09:06:39.875Z,12.36
2023-04-13T09:09:10.809Z,11.89
2023-04-13T09:11:37.642Z,11.46
2023-04-13T09:14:04.011Z,11.58
2023-04-13T09:16:37.968Z,10.86
2023-04-13T09:19:04.551Z,11.16
2023-04-13T09:21:40.907Z,11.14
2023-04-13T09:24:07.742Z,11.09
2023-04-13T09:26:41.250Z,11.39
2023-04-13T09:29:09.738Z,11.47
2023-04-13T09:31:37.846Z,12.05
2023-04-13T09:34:04.258Z,11.92
2023-04-13T09:36:30.570Z,12.06
2023-04-13T09:38:58.025Z,12.68
2023-04-13T09:41:37.760Z,12.32
2023-04-13T09:44:17.007Z,12.48
2023-04-13T09:46:44.163Z,12.53
2023-04-13T09:49:10.716Z,12.56
2023-04-13T09:51:38.621Z,12.80
2023-04-13T09:54:23.866Z,12.52
2023-04-13T09:56:57.846Z,12.07
2023-04-13T09:59:25.430Z,11.81
2023-04-13T10:01:52.200Z,11.74
2023-04-13T10:04:19.141Z,11.69
2023-04-13T10:06:46.694Z,11.73
2023-04-13T10:09:13.146Z,12.01
2023-04-13T10:11:46.007Z,12.26
2023-04-13T10:14:32.960Z,11.97
2023-04-13T10:17:07.569Z,11.74
2023-04-13T10:19:38.073Z,11.93
2023-04-13T10:22:06.453Z,12.01
2023-04-13T10:24:35.023Z,12.28
2023-04-13T10:27:10.355Z,12.40
2023-04-13T10:29:36.740Z,12.95
2023-04-13T10:32:04.086Z,12.61
2023-04-13T10:34:31.528Z,12.04
2023-04-13T10:37:04.277Z,11.91
2023-04-13T10:39:32.317Z,11.87
2023-04-13T10:42:05.010Z,11.79
2023-04-13T10:44:41.391Z,11.98
2023-04-13T10:47:08.430Z,11.96
2023-04-13T10:49:34.866Z,12.16
2023-04-13T10:52:01.275Z,12.14
2023-04-13T10:54:28.618Z,12.55
2023-04-13T10:56:59.326Z,12.19
2023-04-13T11:02:15.009Z,12.97
2023-04-13T11:04:43.008Z,12.98
2023-04-13T11:07:12.922Z,12.51
2023-04-13T11:09:39.946Z,12.32
2023-04-13T11:12:08.211Z,12.23
2023-04-13T11:14:38.631Z,11.94
2023-04-13T11:17:06.764Z,11.71
2023-04-13T11:19:33.410Z,11.49
2023-04-13T11:22:01.457Z,11.34
2023-04-13T11:24:28.977Z,11.43
2023-04-13T11:26:57.690Z,11.35
2023-04-13T11:29:24.178Z,11.24
2023-04-13T11:31:51.220Z,11.35
2023-04-13T11:34:29.090Z,11.41
2023-04-13T11:37:00.586Z,11.49
2023-04-13T11:39:28.512Z,11.80
2023-04-13T11:41:56.467Z,11.75
2023-04-13T11:44:23.543Z,12.15
2023-04-13T11:46:51.836Z,12.46
2023-04-13T11:49:18.323Z,12.34
2023-04-13T11:51:44.877Z,12.07
2023-04-13T11:54:11.379Z,12.06
2023-04-13T11:56:37.929Z,12.05
2023-04-13T11:59:08.195Z,11.98
2023-04-13T12:01:36.656Z,11.85
2023-04-13T12:06:40.996Z,11.52
2023-04-13T12:09:13.385Z,11.28
2023-04-13T12:11:46.024Z,11.43
2023-04-13T12:19:28.136Z,11.33
2023-04-13T12:21:57.648Z,11.55
2023-04-13T12:24:34.834Z,11.21
2023-04-13T12:27:17.670Z,11.31
2023-04-13T12:29:45.411Z,11.45
2023-04-13T12:32:14.578Z,11.57
2023-04-13T12:34:42.273Z,11.69
2023-04-13T12:37:09.637Z,11.34
2023-04-13T12:39:36.426Z,11.93
2023-04-13T12:42:02.922Z,11.80
2023-04-13T12:44:31.231Z,11.93
2023-04-13T12:46:58.987Z,11.53
2023-04-13T12:49:25.812Z,11.44
2023-04-13T12:51:52.230Z,11.89
2023-04-13T12:54:18.815Z,11.62
2023-04-13T12:56:45.152Z,11.69
2023-04-13T12:59:11.741Z,11.82
2023-04-13T13:01:38.467Z,11.58
2023-04-13T13:04:06.203Z,11.47
2023-04-13T13:06:34.123Z,11.45
2023-04-13T13:09:01.162Z,11.24
2023-04-13T13:11:28.247Z,11.69
2023-04-13T13:13:55.810Z,11.46
2023-04-13T13:16:22.373Z,11.42
2023-04-13T13:18:51.340Z,11.48
2023-04-13T13:21:18.330Z,11.70
2023-04-13T13:23:45.406Z,12.19
2023-04-13T13:28:41.400Z,12.55
2023-04-13T13:31:08.373Z,12.30
2023-04-13T13:33:34.826Z,12.53
2023-04-13T13:36:01.422Z,11.79
2023-04-13T13:38:28.037Z,11.89
2023-04-13T13:40:54.408Z,11.72
2023-04-13T13:43:21.617Z,11.49
2023-04-13T13:45:48.819Z,11.81
2023-04-13T13:48:15.274Z,12.00
2023-04-13T13:50:41.583Z,11.97
2023-04-13T13:53:08.539Z,12.04
2023-04-13T13:55:35.073Z,12.27
2023-04-13T13:58:01.485Z,11.72
2023-04-13T14:00:27.934Z,11.49
2023-04-13T14:02:54.635Z,11.62
2023-04-13T14:05:22.153Z,11.63
2023-04-13T14:07:48.776Z,11.50
2023-04-13T14:10:15.181Z,11.14
2023-04-13T14:12:44.034Z,11.18
2023-04-13T14:15:11.381Z,11.35
2023-04-13T14:17:38.439Z,11.54
2023-04-13T14:20:12.030Z,11.43
2023-04-13T14:22:39.831Z,11.52
2023-04-13T14:25:09.231Z,11.48
2023-04-13T14:27:36.162Z,11.23
2023-04-13T14:30:04.512Z,11.44
2023-04-13T14:32:31.600Z,11.38
2023-04-13T14:34:59.879Z,11.24
2023-04-13T14:37:28.130Z,11.41
2023-04-13T14:39:54.943Z,11.43
2023-04-13T14:42:21.683Z,11.17
2023-04-13T14:44:48.174Z,11.21
2023-04-13T14:47:15.838Z,11.31
2023-04-13T14:49:43.108Z,11.31
2023-04-13T14:52:09.507Z,11.42
2023-04-13T14:54:36.408Z,11.45
2023-04-13T14:57:04.774Z,11.38
2023-04-13T14:59:31.485Z,11.45
2023-04-13T15:01:57.989Z,11.41
2023-04-13T15:04:25.539Z,11.19
2023-04-13T15:06:54.248Z,11.32
2023-04-13T15:09:20.980Z,11.21
2023-04-13T15:11:47.301Z,11.14
2023-04-13T15:14:13.729Z,11.21
2023-04-13T15:16:40.189Z,11.11
2023-04-13T15:19:06.692Z,11.18
2023-04-13T15:21:34.696Z,11.13
2023-04-13T15:24:01.236Z,10.98
2023-04-13T15:26:29.215Z,10.93
2023-04-13T15:28:55.634Z,11.06
2023-04-13T15:31:22.165Z,11.06
2023-04-13T15:33:48.637Z,11.09
2023-04-13T15:36:15.895Z,10.81
2023-04-13T15:38:42.791Z,11.04
2023-04-13T15:41:10.141Z,11.10
2023-04-13T15:43:36.669Z,11.08
2023-04-13T15:46:06.204Z,10.89
2023-04-13T15:48:32.562Z,10.84
2023-04-13T15:50:59.574Z,10.70
2023-04-13T15:53:26.924Z,11.05
2023-04-13T15:55:53.669Z,11.09
2023-04-13T15:58:20.056Z,11.07
2023-04-13T16:00:46.386Z,10.92
2023-04-13T16:03:13.177Z,11.19
2023-04-13T16:05:39.762Z,11.20
2023-04-13T16:08:06.372Z,11.21
2023-04-13T16:10:32.864Z,11.02
2023-04-13T16:12:59.228Z,10.93
2023-04-13T16:15:26.172Z,10.81
2023-04-13T16:17:56.753Z,10.77
2023-04-13T16:20:23.671Z,10.62
2023-04-13T16:22:52.944Z,10.69
2023-04-13T16:25:19.686Z,10.81
2023-04-13T16:27:48.005Z,10.83
2023-04-13T16:30:17.849Z,10.84
2023-04-13T16:32:44.997Z,10.75
2023-04-13T16:35:11.556Z,10.75
2023-04-13T16:37:39.320Z,10.75
2023-04-13T16:40:14.663Z,10.63
2023-04-13T16:42:41.441Z,10.73
2023-04-13T16:45:11.391Z,10.43
2023-04-13T16:47:39.480Z,10.63
2023-04-13T16:50:07.192Z,10.48
2023-04-13T16:52:37.189Z,10.61
2023-04-13T16:55:04.176Z,10.34
2023-04-13T16:57:30.694Z,10.39
2023-04-13T17:00:01.169Z,10.45
2023-04-13T17:02:31.539Z,10.33
2023-04-13T17:04:58.252Z,10.26
2023-04-13T17:07:26.948Z,10.14
2023-04-13T17:09:53.390Z,10.29
2023-04-13T17:12:21.006Z,10.24
2023-04-13T17:14:49.727Z,10.14
2023-04-13T17:17:17.272Z,10.16
2023-04-13T17:19:43.769Z,10.00
2023-04-13T17:22:10.591Z,10.05
2023-04-13T17:24:37.008Z,9.97
2023-04-13T17:27:03.342Z,10.08
2023-04-13T17:29:29.802Z,10.02
2023-04-13T17:31:56.501Z,9.83
2023-04-13T17:34:22.913Z,9.92
2023-04-13T17:36:49.276Z,9.90
2023-04-13T17:39:15.757Z,9.80
2023-04-13T17:41:42.137Z,9.77
2023-04-13T17:44:08.755Z,9.67
2023-04-13T17:46:35.087Z,9.58
2023-04-13T17:49:01.778Z,9.48
2023-04-13T17:51:28.958Z,9.57
2023-04-13T17:53:55.323Z,9.61
2023-04-13T17:56:21.733Z,9.56
2023-04-13T17:58:48.181Z,9.39
2023-04-13T18:01:14.768Z,9.35
2023-04-13T18:03:41.514Z,9.10
2023-04-13T18:06:08.107Z,9.05
2023-04-13T18:08:34.470Z,8.97
2023-04-13T18:11:00.873Z,9.00
2023-04-13T18:13:27.757Z,8.88
2023-04-13T18:15:54.621Z,8.91
2023-04-13T18:18:24.459Z,8.83
2023-04-13T18:20:52.119Z,8.83
2023-04-13T18:23:19.074Z,8.77
2023-04-13T18:25:51.138Z,8.55
2023-04-13T18:28:18.166Z,8.68
2023-04-13T18:30:45.160Z,8.83
2023-04-13T18:33:11.874Z,8.78
2023-04-13T18:35:42.499Z,8.61
2023-04-13T18:38:09.811Z,8.69
2023-04-13T18:40:36.365Z,8.67
2023-04-13T18:43:02.697Z,8.20
2023-04-13T18:45:29.046Z,8.40
2023-04-13T18:47:55.445Z,8.58
2023-04-13T18:50:21.942Z,8.50
2023-04-13T18:52:48.294Z,8.36
2023-04-13T18:55:15.352Z,8.32
2023-04-13T18:57:42.104Z,8.24
2023-04-13T19:00:11.466Z,8.06
2023-04-13T19:02:39.288Z,7.88
2023-04-13T19:05:06.060Z,7.90
2023-04-13T19:07:32.974Z,7.90
2023-04-13T19:09:59.308Z,7.98
2023-04-13T19:12:25.806Z,8.01
2023-04-13T19:14:52.195Z,8.00
2023-04-13T19:17:20.779Z,7.96
2023-04-13T19:19:48.602Z,7.71
2023-04-13T19:22:14.952Z,7.82
2023-04-13T19:24:41.307Z,7.66
2023-04-13T19:27:07.743Z,7.37
2023-04-13T19:29:34.745Z,7.53
2023-04-13T19:32:01.152Z,7.69
2023-04-13T19:34:27.596Z,7.39
2023-04-13T19:36:54.182Z,7.34
2023-04-13T19:39:20.855Z,7.22
2023-04-13T19:41:47.374Z,7.40
2023-04-13T19:44:16.068Z,7.41
2023-04-13T19:46:43.638Z,7.39
2023-04-13T19:49:11.885Z,7.29
2023-04-13T19:51:38.435Z,7.34
2023-04-13T19:54:05.995Z,7.48
2023-04-13T19:56:36.683Z,7.58
2023-04-13T19:59:04.156Z,7.64
2023-04-13T20:01:33.025Z,7.55
2023-04-13T20:04:00.614Z,7.65
2023-04-13T20:06:27.604Z,7.50
2023-04-13T20:08:54.001Z,7.38
2023-04-13T20:11:20.883Z,7.27
2023-04-13T20:13:47.324Z,7.14
2023-04-13T20:16:13.811Z,7.05
2023-04-13T20:18:40.175Z,6.89
2023-04-13T20:21:08.194Z,6.89
2023-04-13T20:23:36.404Z,6.98
2023-04-13T20:26:04.511Z,6.95
2023-04-13T20:28:33.232Z,7.12
2023-04-13T20:30:59.613Z,7.02
2023-04-13T20:33:26.196Z,7.17
2023-04-13T20:35:52.966Z,7.05
2023-04-13T20:38:19.346Z,7.07
2023-04-13T20:40:45.745Z,7.21
2023-04-13T20:43:12.488Z,7.13
2023-04-13T20:45:40.074Z,7.16
2023-04-13T20:50:36.113Z,7.21
2023-04-13T20:53:03.860Z,7.24
2023-04-13T20:55:30.823Z,7.15
2023-04-13T20:57:57.544Z,7.25
2023-04-13T21:00:24.956Z,7.26
2023-04-13T21:02:53.111Z,7.28
2023-04-13T21:05:22.275Z,7.17
2023-04-13T21:07:48.754Z,7.12
2023-04-13T21:10:15.981Z,6.91
2023-04-13T21:12:42.372Z,6.85
2023-04-13T21:15:09.267Z,6.86
2023-04-13T21:17:35.659Z,6.79
2023-04-13T21:20:02.129Z,6.94
2023-04-13T21:22:28.565Z,6.79
2023-04-13T21:24:54.884Z,6.64
2023-04-13T21:27:22.442Z,6.83
2023-04-13T21:29:48.798Z,6.56
2023-04-13T21:32:15.641Z,6.67
2023-04-13T21:34:42.059Z,6.75
2023-04-13T21:37:08.515Z,6.72
2023-04-13T21:39:34.917Z,6.76
2023-04-13T21:42:01.309Z,6.77
2023-04-13T21:44:30.173Z,6.64
2023-04-13T21:46:57.305Z,6.75
2023-04-13T21:49:23.924Z,6.59
2023-04-13T21:51:50.487Z,6.89
2023-04-13T21:54:17.102Z,6.93
2023-04-13T21:56:43.450Z,6.87
2023-04-13T21:59:09.878Z,6.95
2023-04-13T22:01:36.288Z,6.98
2023-04-13T22:04:02.763Z,7.04
2023-04-13T22:06:29.147Z,6.96
2023-04-13T22:08:55.503Z,6.90
2023-04-13T22:11:21.838Z,6.89
2023-04-13T22:13:48.267Z,6.80
2023-04-13T22:16:14.740Z,6.70
2023-04-13T22:18:41.726Z,6.65
2023-04-13T22:21:08.209Z,6.58
2023-04-13T22:23:34.528Z,6.57
2023-04-13T22:26:01.623Z,6.68
2023-04-13T22:28:28.698Z,6.55
2023-04-13T22:30:55.220Z,6.62
2023-04-13T22:33:21.639Z,6.55
2023-04-13T22:35:53.025Z,6.38
2023-04-13T22:38:19.668Z,6.43
2023-04-13T22:40:46.043Z,6.48
2023-04-13T22:43:12.391Z,6.43
2023-04-13T22:45:38.729Z,6.41
2023-04-13T22:48:05.348Z,6.15
2023-04-13T22:50:31.769Z,6.25
2023-04-13T22:52:58.166Z,6.37
2023-04-13T22:55:24.570Z,6.37
2023-04-13T22:57:50.947Z,6.35
2023-04-13T23:00:20.561Z,6.38
2023-04-13T23:02:48.561Z,6.25
2023-04-13T23:05:15.419Z,6.35
2023-04-13T23:07:41.869Z,6.32
2023-04-13T23:10:09.171Z,6.31
2023-04-13T23:12:35.750Z,6.37
2023-04-13T23:15:02.203Z,6.40
2023-04-13T23:17:28.561Z,6.39
2023-04-13T23:19:55.079Z,6.28
2023-04-13T23:22:21.902Z,6.40
2023-04-13T23:24:48.865Z,6.34
2023-04-13T23:27:15.366Z,6.30
2023-04-13T23:29:45.637Z,6.24
2023-04-13T23:32:12.149Z,6.30
2023-04-13T23:34:39.724Z,6.33
2023-04-13T23:37:06.096Z,6.16
2023-04-13T23:39:33.433Z,6.23
2023-04-13T23:42:00.662Z,6.37
2023-04-13T23:44:27.054Z,6.26
2023-04-13T23:46:53.523Z,6.29
2023-04-13T23:49:19.843Z,6.32
2023-04-13T23:51:46.304Z,6.20
2023-04-13T23:54:12.698Z,6.29
2023-04-13T23:56:39.412Z,6.38
2023-04-13T23:59:05.739Z,6.16
